Latest Weather Observations for Merriwa

IDN60801

Issued at 5:32 am EST Wednesday 8 July 2020 (issued every 10 minutes, with the page automatically refreshed every 10 minutes)

About weather observations | Map of weather stations | Latest weather observations for NSW | Other Formats
Station Details ID: 061287 Name: MERRIWA (ROSCOMMON) Lat: -32.19 Lon: 150.17 Height: 375.0 m
Data from the previous 72 hours. | See also: Recent months at Merriwa
Date/Time
EST
Temp
°C
App
Temp
°C
Dew
Point
°C
Rel
Hum
%
Delta-T
°C
Wind Press
QNH
hPa
Press
MSL
hPa
Rain since
9am
mm
Dir  Spd
km/h
Gust
km/h
Spd
kts
Gust
kts
08/05:30am 8.2 5.3 8.1 99 0.0 ESE 13 17 7 9 1029.0 1029.7 0.0
08/05:00am 8.1 5.6 8.0 99 0.0 ESE 11 15 6 8 1028.9 1029.6 0.0
08/04:30am 8.1 5.1 7.8 98 0.1 ESE 13 17 7 9 1028.9 1029.6 0.0
08/04:15am 7.8 5.1 7.4 97 0.2 E 11 13 6 7 1029.0 1029.7 0.0
08/04:00am 7.8 5.1 7.4 97 0.2 E 11 13 6 7 1029.0 1029.7 0.0
08/03:30am 8.0 5.3 7.2 95 0.4 ESE 11 13 6 7 1029.2 1029.9 0.0
08/03:00am 7.7 4.8 6.5 92 0.6 SE 11 15 6 8 1029.3 1030.0 0.0
08/02:30am 7.1 4.6 6.4 95 0.3 ESE 9 11 5 6 1029.3 1030.0 0.0
08/02:00am 5.5 4.3 4.8 95 0.3 CALM 0 6 0 3 1029.4 1030.1 0.0
08/01:30am 5.2 2.7 4.5 95 0.3 ENE 7 9 4 5 1029.2 1029.9 0.0
08/01:00am 5.1 2.7 4.1 93 0.4 ENE 6 7 3 4 1029.2 1029.9 0.0
08/12:30am 4.6 1.9 3.9 95 0.3 NE 7 9 4 5 1029.1 1029.8 0.0
08/12:00am 4.4 1.7 3.5 94 0.4 ENE 7 9 4 5 1029.3 1030.0 0.0
 
Date/Time
EST
Temp
°C
App
Temp
°C
Dew
Point
°C
Rel
Hum
%
Delta-T
°C
Wind Press
QNH
hPa
Press
MSL
hPa
Rain since
9am
mm
Dir  Spd
km/h
Gust
km/h
Spd
kts
Gust
kts
07/11:30pm 4.0 1.3 2.8 92 0.5 ENE 6 7 3 4 1029.4 1030.1 0.0
07/11:00pm 4.5 1.4 3.6 94 0.4 NE 9 11 5 6 1029.6 1030.3 0.0
07/10:30pm 4.0 1.4 3.1 94 0.4 NNE 6 7 3 4 1029.7 1030.4 0.0
07/10:00pm 3.9 1.1 3.0 94 0.4 NNE 7 9 4 5 1029.6 1030.3 0.0
07/09:30pm 3.8 1.1 2.6 92 0.5 NE 6 7 3 4 1029.4 1030.1 0.0
07/09:00pm 4.0 1.3 2.4 89 0.6 E 6 7 3 4 1029.4 1030.1 0.0
07/08:30pm 5.1 2.6 3.6 90 0.6 ENE 6 7 3 4 1029.4 1030.1 0.0
07/08:00pm 6.1 3.4 3.9 86 0.9 E 7 9 4 5 1029.2 1029.9 0.0
07/07:30pm 6.7 3.4 4.4 85 1.0 ESE 11 11 6 6 1029.2 1029.9 0.0
07/07:00pm 6.6 3.2 4.1 84 1.1 ESE 11 13 6 7 1029.0 1029.7 0.0
07/06:30pm 6.8 3.8 4.1 83 1.2 ESE 9 11 5 6 1028.8 1029.5 0.0
07/06:00pm 7.5 4.2 4.5 81 1.3 ESE 11 13 6 7 1028.4 1029.2 0.0
07/05:30pm 8.5 4.8 4.7 77 1.7 ESE 13 15 7 8 1028.2 1028.9 0.0
07/05:00pm 10.1 6.9 4.9 70 2.4 ESE 11 13 6 7 1027.9 1028.6 0.0
07/04:30pm 12.8 9.4 5.9 63 3.3 ESE 13 19 7 10 1027.7 1028.4 0.0
07/04:00pm 14.0 10.3 6.4 60 3.7 ESE 15 20 8 11 1027.6 1028.3 0.0
07/03:30pm 14.6 10.7 6.9 60 3.8 ESE 17 20 9 11 1027.5 1028.2 0.0
07/03:00pm 14.9 11.8 7.2 60 3.8 SE 13 19 7 10 1027.6 1028.3 0.0
07/02:30pm 14.8 11.2 6.9 59 3.9 ESE 15 20 8 11 1027.7 1028.4 0.0
07/02:00pm 15.4 12.7 7.4 59 4.0 NE 11 19 6 10 1027.8 1028.5 0.0
07/01:30pm 13.2 10.1 7.4 68 2.9 E 13 19 7 10 1028.1 1028.8 0.0
07/01:00pm 14.8 12.0 8.5 66 3.2 E 13 20 7 11 1028.3 1029.1 0.0
07/12:30pm 14.1 11.0 8.9 71 2.7 ESE 15 20 8 11 1028.9 1029.6 0.0
07/12:00pm 12.9 9.7 8.6 75 2.2 E 15 24 8 13 1029.4 1030.1 0.0
07/11:30am 11.9 9.8 8.2 78 1.9 ENE 9 11 5 6 1029.8 1030.5 0.0
07/11:28am 12.1 10.0 8.4 78 1.9 ENE 9 13 5 7 1029.9 1030.6 0.0
07/11:03am 11.3 9.7 8.0 80 1.6 E 6 9 3 5 1030.0 1030.7 0.0
07/11:00am 10.9 8.9 7.2 78 1.8 ENE 7 11 4 6 1030.0 1030.7 0.0
07/10:45am 11.1 8.8 7.6 79 1.7 NE 9 13 5 7 1030.1 1030.8 0.0
07/10:30am 10.7 8.9 7.8 82 1.4 ENE 7 11 4 6 1030.1 1030.8 0.0
07/10:00am 8.9 8.0 7.7 92 0.6 ENE 2 7 1 4 1030.1 1030.8 0.0
07/09:30am 6.6 5.4 6.5 99 0.0 SW 2 6 1 3 1030.1 1030.8 0.0
07/09:15am 5.8 4.8 5.8 100 0.0 CALM 0 0 0 0 1030.0 1030.7 0.0
07/09:00am 5.1 4.0 5.1 100 0.0 CALM 0 0 0 0 1029.8 1030.5 0.0
07/08:40am 4.0 2.7 4.0 100 0.0 CALM 0 0 0 0 1029.7 1030.4 0.0
07/08:30am 3.4 1.6 3.4 100 0.0 SSW 2 6 1 3 1029.7 1030.4 0.0
07/08:00am 0.1 -2.6 0.1 100 0.0 NE 4 6 2 3 1029.5 1030.2 0.0
07/07:42am -0.7 -3.2 -0.7 100 0.0 N 2 7 1 4 1029.3 1030.0 0.0
07/07:30am -1.2 -3.4 -1.2 100 0.0 CALM 0 0 0 0 1029.2 1029.9 0.0
07/07:00am -2.2 -4.5 -2.3 99 -0.1 CALM 0 0 0 0 1029.1 1029.8 0.0
07/06:30am -1.8 -4.0 -1.8 100 0.0 CALM 0 0 0 0 1028.8 1029.5 0.0
07/06:00am -1.5 -3.7 -1.6 99 0.0 CALM 0 0 0 0 1028.4 1029.2 0.0
07/05:30am -0.7 -3.2 -0.7 100 0.0 N 2 6 1 3 1028.0 1028.7 0.0
07/05:16am -0.8 -3.3 -0.9 99 0.0 N 2 6 1 3 1027.7 1028.4 0.0
07/05:00am -1.3 -4.6 -1.4 99 0.0 N 6 6 3 3 1027.7 1028.4 0.0
07/04:55am -1.1 -4.4 -1.2 99 0.0 N 6 6 3 3 1027.7 1028.4 0.0
07/04:30am -1.2 -3.4 -1.3 99 0.0 CALM 0 0 0 0 1027.8 1028.5 0.0
07/04:00am -1.5 -3.7 -1.6 99 0.0 CALM 0 0 0 0 1027.9 1028.6 0.0
07/03:55am -1.4 -3.6 -1.5 99 0.0 CALM 0 0 0 0 1027.9 1028.6 0.0
07/03:41am -0.6 -2.7 -0.7 99 0.0 CALM 0 0 0 0 1027.8 1028.5 0.0
07/03:30am -0.4 -2.5 -0.5 99 0.0 CALM 0 0 0 0 1027.8 1028.5 0.0
07/03:00am -0.8 -4.1 -0.9 99 0.0 W 6 7 3 4 1027.7 1028.4 0.0
07/02:30am 0.3 -1.7 0.2 99 0.0 CALM 0 0 0 0 1027.7 1028.4 0.0
07/02:00am 0.2 -2.5 0.1 99 0.0 WSW 4 7 2 4 1027.7 1028.4 0.0
07/01:30am 0.8 -1.1 0.7 99 0.0 CALM 0 0 0 0 1027.9 1028.6 0.0
07/01:00am 1.0 -0.9 0.7 98 0.1 CALM 0 0 0 0 1028.0 1028.7 0.0
07/12:30am 0.2 -1.8 -0.2 97 0.1 CALM 0 0 0 0 1028.0 1028.7 0.0
07/12:00am 0.8 -1.1 0.4 97 0.1 CALM 0 2 0 1 1028.3 1029.1 0.0
 
Date/Time
EST
Temp
°C
App
Temp
°C
Dew
Point
°C
Rel
Hum
%
Delta-T
°C
Wind Press
QNH
hPa
Press
MSL
hPa
Rain since
9am
mm
Dir  Spd
km/h
Gust
km/h
Spd
kts
Gust
kts
06/11:30pm 1.0 -2.0 0.6 97 0.2 W 6 7 3 4 1028.4 1029.2 0.0
06/11:00pm 1.7 -0.1 1.1 96 0.2 CALM 0 0 0 0 1028.6 1029.3 0.0
06/10:30pm 2.0 -0.5 1.4 96 0.2 ESE 4 7 2 4 1028.4 1029.2 0.0
06/10:00pm 2.8 1.2 2.2 96 0.2 CALM 0 0 0 0 1028.4 1029.2 0.0
06/09:30pm 2.6 -0.4 1.7 94 0.4 WSW 7 13 4 7 1028.4 1029.2 0.0
06/09:00pm 2.9 1.2 1.9 93 0.4 CALM 0 2 0 1 1028.0 1028.7 0.0
06/08:30pm 3.5 1.9 2.3 92 0.5 CALM 0 0 0 0 1027.9 1028.6 0.0
06/08:00pm 3.4 0.5 1.6 88 0.7 WSW 6 9 3 5 1028.0 1028.7 0.0
06/07:30pm 4.4 2.8 2.3 86 0.9 CALM 0 0 0 0 1027.8 1028.5 0.0
06/07:00pm 5.5 3.0 3.5 87 0.8 N 6 7 3 4 1027.4 1028.1 0.0
06/06:30pm 6.6 4.2 4.1 84 1.1 NNE 6 6 3 3 1027.4 1028.1 0.0
06/06:00pm 7.2 5.7 3.1 75 1.8 CALM 0 0 0 0 1027.2 1027.9 0.0
06/05:30pm 9.6 8.4 4.8 72 2.2 CALM 0 0 0 0 1026.9 1027.6 0.0
06/05:00pm 12.8 11.6 4.8 58 3.7 CALM 0 0 0 0 1026.6 1027.3 0.0
06/04:30pm 15.5 13.7 5.4 51 4.9 NNW 4 6 2 3 1026.6 1027.3 0.0
06/04:00pm 14.8 12.6 5.3 53 4.6 S 6 7 3 4 1026.5 1027.2 0.0
06/03:30pm 15.3 13.5 5.2 51 4.9 SSW 4 9 2 5 1026.3 1027.0 0.0
06/03:00pm 15.3 13.1 5.5 52 4.7 E 6 11 3 6 1026.3 1027.0 0.0
06/02:30pm 14.7 12.5 5.2 53 4.6 ESE 6 9 3 5 1026.3 1027.0 0.0
06/02:00pm 15.2 12.4 5.1 51 4.8 NE 9 11 5 6 1026.3 1027.0 0.0
06/01:30pm 15.2 13.1 6.0 54 4.5 E 6 9 3 5 1026.6 1027.3 0.0
06/01:00pm 13.9 11.4 5.0 55 4.2 E 7 13 4 7 1026.8 1027.5 0.0
06/12:30pm 14.0 11.3 5.6 57 4.1 NE 9 13 5 7 1027.2 1027.9 0.0
06/12:00pm 13.8 11.2 6.2 60 3.7 NE 9 13 5 7 1027.6 1028.3 0.0
06/11:30am 11.5 9.5 4.5 62 3.2 NW 4 9 2 5 1028.2 1028.9 0.0
06/11:00am 10.7 8.4 5.0 68 2.6 W 6 9 3 5 1028.6 1029.3 0.0
06/10:30am 9.2 6.9 4.6 73 2.1 SW 6 9 3 5 1028.9 1029.6 0.0
06/10:00am 8.1 5.6 5.0 81 1.4 W 7 11 4 6 1029.0 1029.7 0.0
06/09:30am 6.9 3.7 5.1 88 0.8 WNW 11 13 6 7 1028.9 1029.6 0.0
06/09:00am 5.0 2.0 4.3 95 0.3 W 9 11 5 6 1029.0 1029.7 0.0
06/08:30am 3.3 0.5 3.2 99 0.0 W 7 9 4 5 1028.4 1029.2 0.0
06/08:00am 1.0 -2.0 1.0 100 0.0 WSW 6 7 3 4 1028.0 1028.7 0.0
06/07:30am -0.7 -2.8 -0.8 99 0.0 CALM 0 7 0 4 1027.8 1028.5 0.0
06/07:00am -1.6 -3.8 -1.7 99 0.0 CALM 0 0 0 0 1027.4 1028.1 0.0
06/06:30am -1.4 -3.6 -1.5 99 0.0 CALM 0 6 0 3 1027.1 1027.8 0.0
06/06:00am -1.8 -4.8 -2.1 98 0.0 W 4 6 2 3 1026.6 1027.3 0.0
06/05:30am -1.3 -4.6 -1.6 98 0.0 W 6 7 3 4 1026.4 1027.1 0.0
06/05:00am -0.3 -3.7 -0.6 98 0.1 WSW 7 9 4 5 1026.1 1026.7 0.0
06/04:30am -0.8 -4.1 -1.4 96 0.2 WSW 6 7 3 4 1026.0 1026.6 0.0
06/04:00am 0.5 -2.2 0.1 97 0.1 WSW 4 7 2 4 1025.9 1026.5 0.0
06/03:30am 1.3 -0.5 0.9 97 0.2 CALM 0 0 0 0 1026.0 1026.6 0.0
06/03:00am 1.2 -0.7 0.3 94 0.3 CALM 0 0 0 0 1025.9 1026.5 0.0
06/02:30am 2.6 -0.3 1.3 91 0.5 WNW 6 7 3 4 1026.0 1026.6 0.0
06/02:00am 4.2 0.7 3.3 94 0.4 WNW 11 13 6 7 1025.9 1026.5 0.0
06/01:30am 3.4 -0.3 2.4 93 0.4 NW 11 15 6 8 1025.9 1026.5 0.0
06/01:00am 3.9 0.3 2.7 92 0.5 NW 11 13 6 7 1025.8 1026.4 0.0
06/12:30am 4.0 0.4 2.8 92 0.5 NW 11 13 6 7 1025.8 1026.4 0.0
06/12:00am 4.1 0.5 2.9 92 0.5 NW 11 13 6 7 1026.0 1026.6 0.0
 
Date/Time
EST
Temp
°C
App
Temp
°C
Dew
Point
°C
Rel
Hum
%
Delta-T
°C
Wind Press
QNH
hPa
Press
MSL
hPa
Rain since
9am
mm
Dir  Spd
km/h
Gust
km/h
Spd
kts
Gust
kts
05/11:30pm 4.9 1.4 3.4 90 0.6 WNW 11 13 6 7 1026.0 1026.6 0.0
05/11:00pm 4.7 1.1 3.0 89 0.7 WNW 11 15 6 8 1025.9 1026.5 0.0
05/10:30pm 4.9 1.3 3.1 88 0.8 WNW 11 13 6 7 1025.9 1026.5 0.0
05/10:00pm 4.8 1.6 3.1 89 0.7 WNW 9 11 5 6 1025.6 1026.3 0.0
05/09:30pm 5.3 1.7 2.8 84 1.0 WNW 11 13 6 7 1025.5 1026.2 0.0
05/09:00pm 5.8 2.3 3.3 84 1.1 WNW 11 15 6 8 1025.4 1026.1 0.0
05/08:30pm 5.7 2.1 3.0 83 1.1 WNW 11 13 6 7 1025.3 1026.0 0.0
05/08:00pm 5.9 2.3 3.1 82 1.2 WNW 11 13 6 7 1025.0 1025.7 0.0
05/07:30pm 6.3 2.5 4.0 85 1.0 WNW 13 15 7 8 1024.8 1025.5 0.0
05/07:00pm 5.8 2.2 3.1 83 1.1 WNW 11 15 6 8 1024.6 1025.3 0.0
05/06:30pm 6.9 3.1 4.0 82 1.3 WNW 13 19 7 10 1024.2 1024.9 0.0
05/06:00pm 6.1 2.1 3.1 81 1.3 NW 13 15 7 8 1023.9 1024.6 0.0
05/05:30pm 7.6 3.4 3.6 76 1.7 WNW 15 19 8 10 1023.5 1024.1 0.0
05/05:00pm 8.8 4.5 3.4 69 2.4 WNW 15 20 8 11 1023.0 1023.6 0.0
05/04:30pm 11.4 6.9 4.2 61 3.3 WNW 17 24 9 13 1022.8 1023.5 0.0
05/04:00pm 12.1 6.7 4.6 60 3.5 WNW 22 30 12 16 1022.7 1023.4 0.0
05/03:30pm 12.8 7.5 4.8 58 3.8 WNW 22 30 12 16 1022.7 1023.4 0.0
05/03:00pm 13.4 8.3 4.3 54 4.2 WNW 20 28 11 15 1022.6 1023.3 0.0
05/02:30pm 13.4 8.6 4.6 55 4.1 W 19 30 10 16 1022.7 1023.4 0.0
05/02:00pm 13.4 8.3 4.0 53 4.3 WNW 20 32 11 17 1022.5 1023.2 0.0
05/01:30pm 13.5 8.7 4.4 54 4.3 WSW 19 30 10 16 1022.5 1023.2 0.0
05/01:00pm 13.3 8.5 4.5 55 4.1 W 19 30 10 16 1022.7 1023.4 0.0
05/12:30pm 13.3 8.3 4.7 56 4.0 W 20 33 11 18 1023.1 1023.7 0.0
05/12:00pm 12.8 7.7 4.0 55 4.0 W 20 32 11 17 1023.6 1024.2 0.0
05/11:30am 12.5 7.4 4.2 57 3.8 W 20 28 11 15 1024.0 1024.7 0.0
05/11:00am 12.8 8.1 5.2 60 3.6 W 19 28 10 15 1024.3 1025.0 0.0
05/10:30am 11.8 6.5 5.0 63 3.2 WNW 22 32 12 17 1024.4 1025.1 0.0
05/10:00am 11.0 5.4 5.3 68 2.7 WNW 24 33 13 18 1024.5 1025.2 0.0
05/09:30am 10.3 4.7 5.3 71 2.3 WNW 24 33 13 18 1024.4 1025.1 0.0
05/09:00am 9.4 4.1 5.2 75 1.9 NW 22 30 12 16 1024.4 1025.1 0.0
05/08:30am 9.1 4.2 5.1 76 1.8 NW 20 28 11 15 1024.5 1025.2 0.0
05/08:00am 7.3 2.4 5.1 86 1.0 NW 20 24 11 13 1024.5 1025.2 0.0
05/07:30am 6.8 2.4 4.6 86 1.0 NW 17 20 9 11 1024.4 1025.1 0.0
05/07:00am 6.5 1.7 4.5 87 0.9 NW 19 24 10 13 1024.1 1024.8 0.0
05/06:30am 6.3 1.4 4.3 87 0.9 NW 19 26 10 14 1023.9 1024.6 0.0
05/06:00am 6.3 1.8 4.3 87 0.9 WNW 17 20 9 11 1023.6 1024.2 0.0

Other formats

Comma delimited format used in spreadsheet applications
http://www.bom.gov.au/fwo/IDN60801/IDN60801.95754.axf

JavaScript Object Notation format (JSON) in row-major order
http://www.bom.gov.au/fwo/IDN60801/IDN60801.95754.json

Data quality

Most of these data are generated automatically and are frequently updated. Quality checks on data are not normally performed. It is possible for incorrect values to appear. Refer to information at About Latest Weather Observations and please check the disclaimer before using these data.